Stations météo

réclame
Mon MeteoGroup
St-Raphael, France (7680): Température de l'air & dewpoint: 12.02.2018 05:00:00 - 18.02.2018 05:00:00 (CET)St-Raphael, France (7680): Vitesse du vent & gusts: 12.02.2018 05:00:00 - 18.02.2018 05:00:00 (CET)St-Raphael, France (7680): Direction du vent: 12.02.2018 05:00:00 - 18.02.2018 05:00:00 (CET)St-Raphael, France (7680): Quantités de précipitations: 12.02.2018 05:00:00 - 18.02.2018 05:00:00 (CET)
Date & Time tt [°C] td [°C] ff [km/h] ff [knt] fx [km/h] fx [knt] dd rr [mm]
18.02.2018 05:00:00 - - - - - - - -
18.02.2018 04:00:00 8,2 3,2 11 6 24 13 NW 0,0
18.02.2018 03:00:00 7,9 3,4 11 6 29 16 WNW 0,0
18.02.2018 02:00:00 8,1 4,1 9 5 28 15 NW 0,0
18.02.2018 01:00:00 8,8 4,8 15 8 42 23 WNW -
18.02.2018 00:00:00 9,6 5,2 13 7 54 29 NW 0,0
17.02.2018 23:00:00 10,5 4,8 35 19 65 35 W 0,0
17.02.2018 22:00:00 11,1 6,2 34 18 55 30 W 0,0
17.02.2018 21:00:00 11,3 8,2 18 10 37 20 W 0,0
17.02.2018 20:00:00 10,7 9,5 9 5 18 10 W 0,0
17.02.2018 19:00:00 10,5 9,7 4 2 13 7 WNW -
17.02.2018 18:00:00 10,8 10,0 5 3 13 7 WNW 0,0
17.02.2018 17:00:00 11,1 10,3 5 3 9 5 WNW 0,0
17.02.2018 16:00:00 11,1 10,3 2 1 8 4 WNW 0,6
17.02.2018 15:00:00 11,0 10,2 4 2 9 5 NW 1,0
17.02.2018 14:00:00 10,9 10,1 4 2 8 4 WNW 1,0
17.02.2018 13:00:00 10,7 9,9 4 2 8 4 W -
17.02.2018 12:00:00 10,8 9,7 4 2 9 5 WSW 0,2
17.02.2018 11:00:00 10,8 9,4 2 1 8 4 W 0,0
17.02.2018 10:00:00 10,2 9,0 4 2 9 5 WNW 0,0
17.02.2018 09:00:00 9,8 8,7 4 2 11 6 WNW 0,0
17.02.2018 08:00:00 9,5 8,4 4 2 11 6 WNW 0,2
17.02.2018 07:00:00 9,5 8,4 2 1 8 4 WNW -
17.02.2018 06:00:00 9,4 8,3 5 3 13 7 WNW 0,2
17.02.2018 05:00:00 9,5 8,3 4 2 5 3 NW 0,0
17.02.2018 04:00:00 9,4 8,2 4 2 11 6 NNW 0,0
17.02.2018 03:00:00 9,5 7,9 4 2 8 4 NW 0,2
17.02.2018 02:00:00 9,6 7,7 4 2 8 4 NW 0,0
17.02.2018 01:00:00 9,6 7,0 4 2 8 4 W -
17.02.2018 00:00:00 9,3 6,9 4 2 8 4 WNW 0,0
16.02.2018 23:00:00 9,5 6,9 4 2 8 4 NW 0,0
16.02.2018 22:00:00 9,7 7,0 4 2 8 4 NW 0,0
16.02.2018 21:00:00 10,0 7,1 4 2 9 5 WNW 0,0
16.02.2018 20:00:00 9,4 6,5 4 2 8 4 WSW 0,0
16.02.2018 19:00:00 10,6 6,7 4 2 11 6 NE -
16.02.2018 18:00:00 11,5 7,0 5 3 15 8 ENE 0,0
16.02.2018 17:00:00 11,8 7,1 8 4 21 11 E 0,0
16.02.2018 16:00:00 11,9 7,0 9 5 21 11 ESE 0,0
16.02.2018 15:00:00 12,2 7,3 9 5 18 10 ESE 0,0
16.02.2018 14:00:00 12,4 7,5 9 5 18 10 ESE 0,0
16.02.2018 13:00:00 12,4 7,3 8 4 16 9 ESE -
16.02.2018 12:00:00 11,8 6,3 2 1 9 5 WSW 0,0
16.02.2018 11:00:00 10,5 5,5 4 2 13 7 NW 0,0
16.02.2018 10:00:00 9,1 4,7 8 4 18 10 NNW 0,0
16.02.2018 09:00:00 7,3 3,9 8 4 16 9 NW 0,0
16.02.2018 08:00:00 6,2 3,2 8 4 16 9 NW 0,0
16.02.2018 07:00:00 6,3 3,3 8 4 16 9 NW -
16.02.2018 06:00:00 6,7 3,3 5 3 15 8 NW 0,0
16.02.2018 05:00:00 7,0 3,6 8 4 16 9 NW 0,0
16.02.2018 04:00:00 6,7 3,3 11 6 18 10 WNW 0,0
16.02.2018 03:00:00 6,6 3,2 8 4 15 8 NW 0,0
16.02.2018 02:00:00 6,2 3,2 8 4 15 8 WNW 0,0
16.02.2018 01:00:00 6,5 2,9 8 4 13 7 WNW -
16.02.2018 00:00:00 6,2 3,0 5 3 15 8 NW 0,0
15.02.2018 23:00:00 5,8 2,8 8 4 13 7 WNW 0,0
15.02.2018 22:00:00 6,1 3,3 4 2 13 7 NW 0,0
15.02.2018 21:00:00 6,8 3,2 4 2 9 5 NNW 0,0
15.02.2018 20:00:00 8,4 4,2 4 2 8 4 NNE 0,0
15.02.2018 19:00:00 7,9 4,3 4 2 5 3 N -
15.02.2018 18:00:00 8,6 4,0 2 1 8 4 SSW 0,0
15.02.2018 17:00:00 10,0 3,7 5 3 11 6 SSE 0,0
15.02.2018 16:00:00 11,5 3,5 4 2 11 6 W 0,0
15.02.2018 15:00:00 10,8 2,6 4 2 11 6 S 0,0
15.02.2018 14:00:00 10,5 1,8 4 2 8 4 SSE 0,0
15.02.2018 13:00:00 9,6 1,0 0 0 8 4 N -
15.02.2018 12:00:00 8,7 1,4 4 2 11 6 NNW 0,0
15.02.2018 11:00:00 7,7 0,6 4 2 18 10 NNW 0,0
15.02.2018 10:00:00 6,9 0,1 8 4 16 9 NNW 0,0
15.02.2018 09:00:00 5,6 -0,1 5 3 18 10 NNW 0,0
15.02.2018 08:00:00 4,1 -0,7 8 4 18 10 NNW 0,0
15.02.2018 07:00:00 3,6 -0,8 8 4 18 10 N -
15.02.2018 06:00:00 2,8 -1,0 8 4 16 9 NNW 0,0
15.02.2018 05:00:00 2,6 -1,0 8 4 15 8 NW 0,0
15.02.2018 04:00:00 2,9 -1,1 8 4 18 10 NNW 0,0
15.02.2018 03:00:00 3,0 -1,0 8 4 16 9 NNW 0,0
15.02.2018 02:00:00 2,1 -0,5 5 3 8 4 NW 0,0
15.02.2018 01:00:00 3,3 -0,3 2 1 13 7 NNW -
15.02.2018 00:00:00 3,1 0,0 4 2 11 6 NW 0,0
14.02.2018 23:00:00 4,3 0,1 4 2 8 4 N 0,0
14.02.2018 22:00:00 3,4 -0,3 2 1 11 6 N 0,0
14.02.2018 21:00:00 4,9 -0,1 0 0 8 4 N 0,0
14.02.2018 20:00:00 6,3 0,0 0 0 9 5 N 0,0
14.02.2018 19:00:00 6,9 -0,1 4 2 18 10 WSW -
14.02.2018 18:00:00 8,4 -0,1 11 6 31 17 S 0,0
14.02.2018 17:00:00 10,0 0,3 16 9 31 17 S 0,0
14.02.2018 16:00:00 11,0 0,7 16 9 34 18 S 0,0
14.02.2018 15:00:00 11,6 1,5 15 8 31 17 S 0,0
14.02.2018 14:00:00 11,9 0,6 13 7 28 15 SSE 0,0
14.02.2018 13:00:00 11,6 -0,3 8 4 18 10 S -
14.02.2018 12:00:00 10,6 -1,8 9 5 21 11 NNW 0,0
14.02.2018 11:00:00 8,6 -3,0 11 6 - - NW 0,0
14.02.2018 10:00:00 5,9 -2,0 9 5 22 12 NNW 0,0
14.02.2018 09:00:00 3,1 -3,1 9 5 24 13 NNW 0,0
14.02.2018 08:00:00 2,2 -3,7 8 4 21 11 NNW 0,0
14.02.2018 07:00:00 3,1 -3,7 11 6 26 14 NW -
14.02.2018 06:00:00 3,7 -4,0 11 6 29 16 NW 0,0
14.02.2018 05:00:00 3,7 -4,5 11 6 39 21 NW 0,0
14.02.2018 04:00:00 3,4 -5,3 13 7 29 16 NW 0,0
14.02.2018 03:00:00 3,1 -6,3 9 5 21 11 NW 0,0
14.02.2018 02:00:00 1,9 -6,7 8 4 11 6 W 0,0
14.02.2018 01:00:00 2,6 -7,3 8 4 11 6 NNW -
14.02.2018 00:00:00 3,6 -8,8 5 3 21 11 NNW 0,0
13.02.2018 23:00:00 5,5 -9,9 13 7 24 13 WNW 0,0
13.02.2018 22:00:00 5,6 -7,0 8 4 18 10 WNW 0,0
13.02.2018 21:00:00 6,3 -6,7 8 4 21 11 WNW 0,0
13.02.2018 20:00:00 6,8 -5,6 13 7 18 10 W 0,0
13.02.2018 19:00:00 6,2 -0,8 4 2 8 4 WSW -
13.02.2018 18:00:00 7,4 -0,3 5 3 18 10 S 0,0
13.02.2018 17:00:00 8,3 -1,0 11 6 28 15 SSE 0,0
13.02.2018 16:00:00 10,3 0,6 18 10 37 20 S 0,0
13.02.2018 15:00:00 11,5 1,4 18 10 34 18 S 0,0
13.02.2018 14:00:00 12,1 0,5 16 9 34 18 SSE 0,0
13.02.2018 13:00:00 10,7 2,0 9 5 21 11 SSE -
13.02.2018 12:00:00 10,8 -0,4 8 4 18 10 SSE 0,0
13.02.2018 11:00:00 8,0 -4,2 4 2 22 12 N 0,0
13.02.2018 10:00:00 5,1 -5,9 11 6 26 14 NW 0,0
13.02.2018 09:00:00 2,7 -6,2 11 6 34 18 NNW 0,0
13.02.2018 08:00:00 2,6 -4,4 11 6 35 19 N 0,0
13.02.2018 07:00:00 2,2 -7,7 15 8 31 17 NW -
13.02.2018 06:00:00 2,3 -7,6 15 8 29 16 NNW 0,0
13.02.2018 05:00:00 2,5 -7,4 11 6 28 15 NNW 0,0
13.02.2018 04:00:00 3,2 -7,3 13 7 28 15 NNW 0,0
13.02.2018 03:00:00 3,0 -7,2 13 7 28 15 NNW 0,0
13.02.2018 02:00:00 3,3 -7,2 11 6 28 15 NNW 0,0
13.02.2018 01:00:00 3,6 -7,0 11 6 26 14 NNW -
13.02.2018 00:00:00 4,5 -7,0 13 7 28 15 NW 0,0
12.02.2018 23:00:00 5,1 -6,8 13 7 26 14 NW 0,0
12.02.2018 22:00:00 5,9 -6,4 13 7 28 15 NW 0,0
12.02.2018 21:00:00 6,4 -3,8 11 6 18 10 NW 0,0
12.02.2018 20:00:00 7,6 1,9 9 5 21 11 NNW 0,0
12.02.2018 19:00:00 7,9 1,3 8 4 21 11 WNW -
12.02.2018 18:00:00 9,0 1,9 8 4 35 19 NE 0,0
12.02.2018 17:00:00 10,5 1,6 13 7 41 22 ENE 0,0
12.02.2018 16:00:00 12,4 -6,1 24 13 54 29 W 0,0
12.02.2018 15:00:00 12,5 -6,0 29 16 57 31 W 0,0
12.02.2018 14:00:00 12,2 -5,3 34 18 67 36 W 0,0
12.02.2018 13:00:00 12,0 -5,5 29 16 67 36 WNW -
12.02.2018 12:00:00 11,5 -5,1 35 19 67 36 W 0,0
12.02.2018 11:00:00 10,2 -2,8 28 15 54 29 W 0,0
12.02.2018 10:00:00 9,0 -2,3 22 12 50 27 W 0,0
12.02.2018 09:00:00 8,1 -2,3 9 5 39 21 WNW 0,0
12.02.2018 08:00:00 8,0 -3,2 22 12 55 30 WNW 0,0
12.02.2018 07:00:00 7,5 -2,8 31 17 61 33 WNW -
12.02.2018 06:00:00 8,3 -2,7 34 18 61 33 WNW 0,0
12.02.2018 05:00:00 8,5 -1,9 16 9 41 22 W 0,0

tt = Température de l'air
td = dewpoint
ff = Vitesse du vent
fx = gusts
dd = Direction du vent
rr = Quantités de précipitations

stations d'obs. à proximité